createdAt,value
2023-04-22T00:00:02.199Z,17.33
2023-04-22T00:15:01.786Z,16.87
2023-04-22T00:30:02.470Z,16.73
2023-04-22T00:45:02.117Z,16.58
2023-04-22T01:00:01.755Z,16.36
2023-04-22T01:15:04.680Z,16.25
2023-04-22T01:30:01.752Z,15.93
2023-04-22T01:45:02.379Z,15.66
2023-04-22T02:00:02.011Z,15.32
2023-04-22T02:15:01.621Z,15.11
2023-04-22T02:30:02.240Z,14.83
2023-04-22T02:45:01.850Z,14.59
2023-04-22T03:00:02.513Z,14.31
2023-04-22T03:15:02.183Z,14.11
2023-04-22T03:30:01.840Z,13.95
2023-04-22T03:45:02.495Z,13.82
2023-04-22T04:00:02.117Z,13.67
2023-04-22T04:15:01.741Z,13.58
2023-04-22T04:30:01.885Z,13.46
2023-04-22T04:45:02.524Z,13.39
2023-04-22T05:00:02.109Z,13.35
2023-04-22T05:15:01.706Z,13.33
2023-04-22T05:30:02.374Z,13.31
2023-04-22T05:45:01.996Z,13.31
2023-04-22T06:00:01.694Z,13.38
2023-04-22T06:15:02.403Z,13.57
2023-04-22T06:30:02.078Z,13.68
2023-04-22T06:45:01.667Z,13.9
2023-04-22T07:00:02.287Z,14.08
2023-04-22T07:15:01.917Z,14.3
2023-04-22T07:30:01.580Z,14.59
2023-04-22T07:45:02.177Z,14.96
2023-04-22T08:00:01.775Z,15.43
2023-04-22T08:15:02.394Z,15.98
2023-04-22T08:30:02.056Z,16.38
2023-04-22T08:45:01.690Z,16.97
2023-04-22T09:00:02.274Z,17.48
2023-04-22T09:15:01.936Z,18.1
2023-04-22T09:30:01.631Z,18.64
2023-04-22T09:45:02.420Z,19.21
2023-04-22T10:00:02.182Z,19.7
2023-04-22T10:15:01.812Z,20.26
2023-04-22T10:30:02.499Z,20.73
2023-04-22T10:45:02.132Z,21.09
2023-04-22T11:00:01.701Z,21.47
2023-04-22T11:15:02.334Z,21.83
2023-04-22T11:30:01.969Z,22.12
2023-04-22T11:45:01.655Z,22.35
2023-04-22T12:00:02.263Z,22.77
2023-04-22T12:15:01.874Z,22.99
2023-04-22T12:30:01.574Z,23.26
2023-04-22T12:45:02.233Z,23.68
2023-04-22T13:00:01.849Z,23.72
2023-04-22T13:15:02.490Z,23.98
2023-04-22T13:30:02.132Z,24.35
2023-04-22T13:45:01.739Z,24.04
2023-04-22T14:00:02.337Z,23.7
2023-04-22T14:15:01.997Z,23.57
2023-04-22T14:30:01.652Z,23.89
2023-04-22T14:45:02.350Z,24.3
2023-04-22T15:00:01.981Z,24.53
2023-04-22T15:15:01.663Z,24.29
2023-04-22T15:30:02.344Z,24.15
2023-04-22T15:45:03.867Z,23.81
2023-04-22T16:00:10.149Z,23.47
2023-04-22T16:15:02.038Z,23.25
2023-04-22T16:30:01.762Z,22.78
2023-04-22T16:45:02.415Z,22.32
2023-04-22T17:00:02.250Z,21.89
2023-04-22T17:15:01.859Z,21.39
2023-04-22T17:30:01.603Z,21.04
2023-04-22T17:45:02.212Z,20.81
2023-04-22T18:00:01.792Z,20.57
2023-04-22T18:15:02.391Z,20.31
2023-04-22T18:30:02.051Z,20.07
2023-04-22T18:45:04.213Z,19.69
2023-04-22T19:00:02.361Z,19.34
2023-04-22T19:15:02.009Z,19.11
2023-04-22T19:30:01.680Z,18.89
2023-04-22T19:45:02.316Z,18.72
2023-04-22T20:00:02.080Z,18.66
2023-04-22T20:15:01.731Z,18.5
2023-04-22T20:30:02.418Z,18.34
2023-04-22T20:45:02.037Z,18.16
2023-04-22T21:00:01.693Z,17.93
2023-04-22T21:15:02.287Z,17.72
2023-04-22T21:30:01.953Z,17.56
2023-04-22T21:45:01.623Z,17.45
2023-04-22T22:00:02.384Z,17.35
2023-04-22T22:15:02.171Z,17.08
2023-04-22T22:30:01.866Z,16.93
2023-04-22T22:45:02.510Z,16.73
2023-04-22T23:00:02.146Z,16.58
2023-04-22T23:15:01.836Z,16.37
2023-04-22T23:30:02.465Z,16.22
2023-04-22T23:45:02.144Z,15.78
